Nicole Leigh Reinauer — WCZ5696 — position and weather

sailwx.info

Track history (hours):
 
Tides and Currents Weather Stations Pressure Air Temp Water Temp Dewpoint Dewpoint Depression Visibility Wind Speed Wind Dir Waves Ship Positions

Nicole Leigh Reinauer

Owner: H A REINAUER INC, STATEN ISLAND, NY. More information available from US FCC via Universal Licensing System and Coast Guard Vessel Documentation Center.

Last reported at 2016-Dec-05 23:05 UTC. Time now 2016-Dec-06 12:11 UTC.
Position N 40°35' W 074°12'.

Length 167 m; draft 8 m.

Type: Tanker. MMSI: 366774330.

Date/timePositionNaut miles runAvg speedWind from/ knotsBaromVisibWave heightAir tempDewpointWater temp
2016-Dec-05 23:05N 40°35' W 074°12'0 0.0
2016-Dec-05 22:33N 40°35' W 074°12'0 0.0
2016-Dec-05 21:33N 40°35' W 074°12'2 2.1
2016-Dec-05 20:33N 40°37' W 074°12'8 8.0
2016-Dec-05 19:33N 40°40' W 074°02'0 0.1
2016-Dec-05 18:32N 40°40' W 074°02'0 0.1
2016-Dec-05 17:32N 40°40' W 074°02'0 0.0
2016-Dec-05 16:32N 40°40' W 074°02'0 0.0
2016-Dec-05 15:32N 40°40' W 074°02'1 0.9
2016-Dec-05 14:33N 40°39' W 074°03'1 0.7
2016-Dec-05 13:31N 40°39' W 074°03'0 0.1
2016-Dec-05 12:31N 40°39' W 074°03'0 0.1
2016-Dec-05 11:31N 40°39' W 074°03'0 0.0
2016-Dec-05 10:31N 40°39' W 074°03'0 0.0
2016-Dec-05 09:31N 40°39' W 074°03'0 0.0
2016-Dec-05 08:31N 40°39' W 074°03'0 0.0
2016-Dec-05 07:31N 40°39' W 074°03'0 0.1
2016-Dec-05 06:31N 40°39' W 074°03'0 0.1
2016-Dec-05 05:25N 40°39' W 074°03'0 0.0
2016-Dec-05 04:31N 40°39' W 074°03'0 0.0
2016-Dec-05 03:31N 40°39' W 074°03'0 0.1
2016-Dec-05 02:31N 40°39' W 074°03'0 0.1
2016-Dec-05 01:31N 40°39' W 074°03'0 0.0
2016-Dec-05 00:31N 40°39' W 074°03'0 0.0
2016-Dec-04 23:31N 40°39' W 074°03'0 0.0
2016-Dec-04 22:31N 40°39' W 074°03'0 0.0
2016-Dec-04 21:28N 40°39' W 074°03'0 0.0
2016-Dec-04 20:28N 40°39' W 074°03'0 0.0
2016-Dec-04 19:31N 40°39' W 074°03'0 0.0
2016-Dec-04 18:31N 40°39' W 074°03'0 0.2
2016-Dec-04 17:31N 40°39' W 074°03'0 0.1
2016-Dec-04 16:31N 40°39' W 074°03'0 0.0
2016-Dec-04 15:31N 40°39' W 074°03'0 0.0
2016-Dec-04 14:31N 40°39' W 074°03'0 0.1
2016-Dec-04 13:28N 40°39' W 074°03'0 0.1
2016-Dec-04 12:28N 40°39' W 074°03'0 0.1
2016-Dec-04 11:31N 40°39' W 074°03'0 0.0
2016-Dec-04 10:31N 40°39' W 074°03'0 0.0
2016-Dec-04 09:31N 40°39' W 074°03'0 0.0
2016-Dec-04 08:31N 40°39' W 074°03'0 0.0
2016-Dec-04 07:31N 40°39' W 074°03'0 0.0
2016-Dec-04 06:31N 40°39' W 074°03'0 0.0
2016-Dec-04 05:31N 40°39' W 074°03'0 0.1
2016-Dec-04 04:28N 40°39' W 074°03'0 0.0
2016-Dec-04 03:34N 40°39' W 074°03'0 0.0
2016-Dec-04 02:31N 40°39' W 074°03'0 0.1
2016-Dec-04 01:34N 40°39' W 074°03'0 0.0
2016-Dec-04 00:31N 40°39' W 074°03'0 0.0
2016-Dec-03 23:31N 40°39' W 074°03'0 0.1
2016-Dec-03 22:31N 40°39' W 074°03'0 0.0
2016-Dec-03 21:34N 40°39' W 074°03'0 0.0
2016-Dec-03 20:30N 40°39' W 074°03'0 0.0
2016-Dec-03 19:31N 40°39' W 074°03'0 0.0
2016-Dec-03 18:34N 40°39' W 074°03'0 0.0
2016-Dec-03 17:28N 40°39' W 074°03'0 0.0
2016-Dec-03 16:30N 40°39' W 074°03'0 0.1
2016-Dec-03 15:31N 40°39' W 074°03'0 0.0
2016-Dec-03 14:34N 40°39' W 074°03'0 0.0
2016-Dec-03 13:30N 40°39' W 074°03'0 0.0
2016-Dec-03 12:34N 40°39' W 074°03'0 0.0
2016-Dec-03 11:31N 40°39' W 074°03'0 0.0
2016-Dec-03 10:31N 40°39' W 074°03'0 0.0
2016-Dec-03 09:33N 40°39' W 074°03'0 0.0
2016-Dec-03 08:30N 40°39' W 074°03'0 0.0
2016-Dec-03 07:30N 40°39' W 074°03'0 0.1
2016-Dec-03 06:34N 40°39' W 074°03'0 0.1
2016-Dec-03 05:31N 40°39' W 074°03'0 0.0
2016-Dec-03 04:33N 40°39' W 074°03'4 3.6
2016-Dec-03 03:32N 40°38' W 074°08'4 3.8
2016-Dec-03 02:33N 40°39' W 074°03'0 0.0
2016-Dec-03 01:30N 40°39' W 074°03'0 0.0
2016-Dec-03 00:18N 40°39' W 074°03'0 0.0
2016-Dec-02 23:32N 40°39' W 074°03'0 0.1
2016-Dec-02 22:32N 40°39' W 074°03'0 0.0
2016-Dec-02 21:34N 40°39' W 074°03'0 0.1
2016-Dec-02 20:34N 40°39' W 074°03'0 0.1
2016-Dec-02 19:34N 40°39' W 074°03'0 0.0
2016-Dec-02 18:34N 40°39' W 074°03'1 0.6
2016-Dec-02 17:34N 40°39' W 074°03'9 8.5
2016-Dec-02 16:33N 40°46' W 073°57'7 6.7
2016-Dec-02 15:33N 40°48' W 073°48'6 0.2
2016-Dec-01 03:30N 40°53' W 073°43'9 9.4
2016-Dec-01 02:33N 40°48' W 073°53'1010.1
2016-Dec-01 01:33N 40°41' W 074°02'2 2.5
2016-Dec-01 00:33N 40°38' W 074°03'4 4.1
2016-Nov-30 23:33N 40°39' W 074°08'6 6.0
2016-Nov-30 22:31N 40°33' W 074°13'2 0.1
2016-Nov-29 17:09N 40°32' W 074°15'2 2.8
2016-Nov-29 16:31N 40°33' W 074°13'7 7.2
2016-Nov-29 15:33N 40°39' W 074°07'4 3.8
2016-Nov-29 14:33N 40°40' W 074°03'0 0.0
2016-Nov-29 13:33N 40°40' W 074°03'0 0.0
2016-Nov-29 12:33N 40°40' W 074°03'0 0.0
2016-Nov-29 11:33N 40°40' W 074°03'0 0.0
2016-Nov-29 10:33N 40°40' W 074°03'0 0.2
2016-Nov-29 09:33N 40°40' W 074°03'0 0.0
2016-Nov-29 08:33N 40°40' W 074°03'0 0.0
2016-Nov-29 07:33N 40°40' W 074°03'0 0.0
2016-Nov-29 06:33N 40°40' W 074°03'0 0.0
2016-Nov-29 05:33N 40°40' W 074°03'0 0.0
2016-Nov-29 04:33N 40°40' W 074°03'0 0.1
2016-Nov-29 03:33N 40°40' W 074°03'0 0.1
2016-Nov-29 02:33N 40°40' W 074°03'0 0.1
2016-Nov-29 01:33N 40°40' W 074°02'0 0.0
2016-Nov-29 00:33N 40°40' W 074°02'0 0.0
2016-Nov-28 23:33N 40°40' W 074°03'0 0.1
2016-Nov-28 22:33N 40°40' W 074°03'0 0.2
2016-Nov-28 21:33N 40°40' W 074°03'0 0.1
2016-Nov-28 20:33N 40°40' W 074°03'0 0.0
2016-Nov-28 19:33N 40°40' W 074°03'0 0.0
2016-Nov-28 18:33N 40°40' W 074°03'0 0.0
2016-Nov-28 17:33N 40°40' W 074°03'0 0.0
2016-Nov-28 16:33N 40°40' W 074°03'0 0.1
2016-Nov-28 15:33N 40°40' W 074°02'0 0.1
2016-Nov-28 14:33N 40°40' W 074°02'0 0.1
2016-Nov-28 13:33N 40°40' W 074°02'0 0.0
2016-Nov-28 12:33N 40°40' W 074°02'0 0.0
2016-Nov-28 11:33N 40°40' W 074°02'0 0.0
2016-Nov-28 10:33N 40°40' W 074°02'0 0.1
2016-Nov-28 09:33N 40°40' W 074°02'0 0.1
2016-Nov-28 08:33N 40°40' W 074°03'0 0.0
2016-Nov-28 07:33N 40°40' W 074°03'0 0.0
2016-Nov-28 06:33N 40°40' W 074°03'0 0.0
2016-Nov-28 05:33N 40°40' W 074°03'0 0.0
2016-Nov-28 04:33N 40°40' W 074°03'0 0.0
2016-Nov-28 03:33N 40°40' W 074°03'0 0.1
2016-Nov-28 02:33N 40°40' W 074°02'0 0.1
2016-Nov-28 01:33N 40°40' W 074°02'0 0.0
2016-Nov-28 00:33N 40°40' W 074°02'0 0.0
2016-Nov-27 23:33N 40°40' W 074°02'0 0.0
2016-Nov-27 22:33N 40°40' W 074°02'4 4.3
2016-Nov-27 21:33N 40°38' W 074°08'0 0.0
2016-Nov-27 20:33N 40°38' W 074°08'0 0.0
2016-Nov-27 19:33N 40°38' W 074°08'0 0.0
2016-Nov-27 18:33N 40°38' W 074°08'0 0.0
2016-Nov-27 17:33N 40°38' W 074°08'4 4.2
2016-Nov-27 16:34N 40°40' W 074°03'0 0.0
2016-Nov-27 15:34N 40°40' W 074°03'0 0.1
2016-Nov-27 14:34N 40°40' W 074°02'0 0.1
2016-Nov-27 13:33N 40°40' W 074°02'0 0.1
2016-Nov-27 12:33N 40°40' W 074°02'3 2.7
2016-Nov-27 11:33N 40°42' W 074°00'7 7.1
2016-Nov-27 10:32N 40°48' W 073°55'8 7.9
2016-Nov-27 09:33N 40°51' W 073°45'0 0.0
2016-Nov-26 02:33N 40°51' W 073°45'8 8.2
2016-Nov-26 01:33N 40°47' W 073°55'8 8.5
2016-Nov-26 00:33N 40°41' W 074°02'9 9.0
2016-Nov-25 23:33N 40°36' W 074°12'  
Track history (hours):
 
Tides and Currents Weather Stations Pressure Air Temp Water Temp Dewpoint Dewpoint Depression Visibility Wind Speed Wind Dir Waves Ship Positions

Nicole Leigh Reinauer

Owner: H A REINAUER INC, STATEN ISLAND, NY. More information available from US FCC via Universal Licensing System and Coast Guard Vessel Documentation Center.

Last reported at 2016-Dec-05 23:05 UTC. Time now 2016-Dec-06 12:11 UTC.
Position N 40°35' W 074°12'.

Length 167 m; draft 8 m.

Type: Tanker. MMSI: 366774330.

Date/timePositionNaut miles runAvg speedWind from/ knotsBaromVisibWave heightAir tempDewpointWater temp
2016-Dec-05 23:05N 40°35' W 074°12'0 0.0
2016-Dec-05 22:33N 40°35' W 074°12'0 0.0
2016-Dec-05 21:33N 40°35' W 074°12'2 2.1
2016-Dec-05 20:33N 40°37' W 074°12'8 8.0
2016-Dec-05 19:33N 40°40' W 074°02'0 0.1
2016-Dec-05 18:32N 40°40' W 074°02'0 0.1
2016-Dec-05 17:32N 40°40' W 074°02'0 0.0
2016-Dec-05 16:32N 40°40' W 074°02'0 0.0
2016-Dec-05 15:32N 40°40' W 074°02'1 0.9
2016-Dec-05 14:33N 40°39' W 074°03'1 0.7
2016-Dec-05 13:31N 40°39' W 074°03'0 0.1
2016-Dec-05 12:31N 40°39' W 074°03'0 0.1
2016-Dec-05 11:31N 40°39' W 074°03'0 0.0
2016-Dec-05 10:31N 40°39' W 074°03'0 0.0
2016-Dec-05 09:31N 40°39' W 074°03'0 0.0
2016-Dec-05 08:31N 40°39' W 074°03'0 0.0
2016-Dec-05 07:31N 40°39' W 074°03'0 0.1
2016-Dec-05 06:31N 40°39' W 074°03'0 0.1
2016-Dec-05 05:25N 40°39' W 074°03'0 0.0
2016-Dec-05 04:31N 40°39' W 074°03'0 0.0
2016-Dec-05 03:31N 40°39' W 074°03'0 0.1
2016-Dec-05 02:31N 40°39' W 074°03'0 0.1
2016-Dec-05 01:31N 40°39' W 074°03'0 0.0
2016-Dec-05 00:31N 40°39' W 074°03'0 0.0
2016-Dec-04 23:31N 40°39' W 074°03'0 0.0
2016-Dec-04 22:31N 40°39' W 074°03'0 0.0
2016-Dec-04 21:28N 40°39' W 074°03'0 0.0
2016-Dec-04 20:28N 40°39' W 074°03'0 0.0
2016-Dec-04 19:31N 40°39' W 074°03'0 0.0
2016-Dec-04 18:31N 40°39' W 074°03'0 0.2
2016-Dec-04 17:31N 40°39' W 074°03'0 0.1
2016-Dec-04 16:31N 40°39' W 074°03'0 0.0
2016-Dec-04 15:31N 40°39' W 074°03'0 0.0
2016-Dec-04 14:31N 40°39' W 074°03'0 0.1
2016-Dec-04 13:28N 40°39' W 074°03'0 0.1
2016-Dec-04 12:28N 40°39' W 074°03'0 0.1
2016-Dec-04 11:31N 40°39' W 074°03'0 0.0
2016-Dec-04 10:31N 40°39' W 074°03'0 0.0
2016-Dec-04 09:31N 40°39' W 074°03'0 0.0
2016-Dec-04 08:31N 40°39' W 074°03'0 0.0
2016-Dec-04 07:31N 40°39' W 074°03'0 0.0
2016-Dec-04 06:31N 40°39' W 074°03'0 0.0
2016-Dec-04 05:31N 40°39' W 074°03'0 0.1
2016-Dec-04 04:28N 40°39' W 074°03'0 0.0
2016-Dec-04 03:34N 40°39' W 074°03'0 0.0
2016-Dec-04 02:31N 40°39' W 074°03'0 0.1
2016-Dec-04 01:34N 40°39' W 074°03'0 0.0
2016-Dec-04 00:31N 40°39' W 074°03'0 0.0
2016-Dec-03 23:31N 40°39' W 074°03'0 0.1
2016-Dec-03 22:31N 40°39' W 074°03'0 0.0
2016-Dec-03 21:34N 40°39' W 074°03'0 0.0
2016-Dec-03 20:30N 40°39' W 074°03'0 0.0
2016-Dec-03 19:31N 40°39' W 074°03'0 0.0
2016-Dec-03 18:34N 40°39' W 074°03'0 0.0
2016-Dec-03 17:28N 40°39' W 074°03'0 0.0
2016-Dec-03 16:30N 40°39' W 074°03'0 0.1
2016-Dec-03 15:31N 40°39' W 074°03'0 0.0
2016-Dec-03 14:34N 40°39' W 074°03'0 0.0
2016-Dec-03 13:30N 40°39' W 074°03'0 0.0
2016-Dec-03 12:34N 40°39' W 074°03'0 0.0
2016-Dec-03 11:31N 40°39' W 074°03'0 0.0
2016-Dec-03 10:31N 40°39' W 074°03'0 0.0
2016-Dec-03 09:33N 40°39' W 074°03'0 0.0
2016-Dec-03 08:30N 40°39' W 074°03'0 0.0
2016-Dec-03 07:30N 40°39' W 074°03'0 0.1
2016-Dec-03 06:34N 40°39' W 074°03'0 0.1
2016-Dec-03 05:31N 40°39' W 074°03'0 0.0
2016-Dec-03 04:33N 40°39' W 074°03'4 3.6
2016-Dec-03 03:32N 40°38' W 074°08'4 3.8
2016-Dec-03 02:33N 40°39' W 074°03'0 0.0
2016-Dec-03 01:30N 40°39' W 074°03'0 0.0
2016-Dec-03 00:18N 40°39' W 074°03'0 0.0
2016-Dec-02 23:32N 40°39' W 074°03'0 0.1
2016-Dec-02 22:32N 40°39' W 074°03'0 0.0
2016-Dec-02 21:34N 40°39' W 074°03'0 0.1
2016-Dec-02 20:34N 40°39' W 074°03'0 0.1
2016-Dec-02 19:34N 40°39' W 074°03'0 0.0
2016-Dec-02 18:34N 40°39' W 074°03'1 0.6
2016-Dec-02 17:34N 40°39' W 074°03'9 8.5
2016-Dec-02 16:33N 40°46' W 073°57'7 6.7
2016-Dec-02 15:33N 40°48' W 073°48'6 0.2
2016-Dec-01 03:30N 40°53' W 073°43'9 9.4
2016-Dec-01 02:33N 40°48' W 073°53'1010.1
2016-Dec-01 01:33N 40°41' W 074°02'2 2.5
2016-Dec-01 00:33N 40°38' W 074°03'4 4.1
2016-Nov-30 23:33N 40°39' W 074°08'6 6.0
2016-Nov-30 22:31N 40°33' W 074°13'2 0.1
2016-Nov-29 17:09N 40°32' W 074°15'2 2.8
2016-Nov-29 16:31N 40°33' W 074°13'7 7.2
2016-Nov-29 15:33N 40°39' W 074°07'4 3.8
2016-Nov-29 14:33N 40°40' W 074°03'0 0.0
2016-Nov-29 13:33N 40°40' W 074°03'0 0.0
2016-Nov-29 12:33N 40°40' W 074°03'0 0.0
2016-Nov-29 11:33N 40°40' W 074°03'0 0.0
2016-Nov-29 10:33N 40°40' W 074°03'0 0.2
2016-Nov-29 09:33N 40°40' W 074°03'0 0.0
2016-Nov-29 08:33N 40°40' W 074°03'0 0.0
2016-Nov-29 07:33N 40°40' W 074°03'0 0.0
2016-Nov-29 06:33N 40°40' W 074°03'0 0.0
2016-Nov-29 05:33N 40°40' W 074°03'0 0.0
2016-Nov-29 04:33N 40°40' W 074°03'0 0.1
2016-Nov-29 03:33N 40°40' W 074°03'0 0.1
2016-Nov-29 02:33N 40°40' W 074°03'0 0.1
2016-Nov-29 01:33N 40°40' W 074°02'0 0.0
2016-Nov-29 00:33N 40°40' W 074°02'0 0.0
2016-Nov-28 23:33N 40°40' W 074°03'0 0.1
2016-Nov-28 22:33N 40°40' W 074°03'0 0.2
2016-Nov-28 21:33N 40°40' W 074°03'0 0.1
2016-Nov-28 20:33N 40°40' W 074°03'0 0.0
2016-Nov-28 19:33N 40°40' W 074°03'0 0.0
2016-Nov-28 18:33N 40°40' W 074°03'0 0.0
2016-Nov-28 17:33N 40°40' W 074°03'0 0.0
2016-Nov-28 16:33N 40°40' W 074°03'0 0.1
2016-Nov-28 15:33N 40°40' W 074°02'0 0.1
2016-Nov-28 14:33N 40°40' W 074°02'0 0.1
2016-Nov-28 13:33N 40°40' W 074°02'0 0.0
2016-Nov-28 12:33N 40°40' W 074°02'0 0.0
2016-Nov-28 11:33N 40°40' W 074°02'0 0.0
2016-Nov-28 10:33N 40°40' W 074°02'0 0.1
2016-Nov-28 09:33N 40°40' W 074°02'0 0.1
2016-Nov-28 08:33N 40°40' W 074°03'0 0.0
2016-Nov-28 07:33N 40°40' W 074°03'0 0.0
2016-Nov-28 06:33N 40°40' W 074°03'0 0.0
2016-Nov-28 05:33N 40°40' W 074°03'0 0.0
2016-Nov-28 04:33N 40°40' W 074°03'0 0.0
2016-Nov-28 03:33N 40°40' W 074°03'0 0.1
2016-Nov-28 02:33N 40°40' W 074°02'0 0.1
2016-Nov-28 01:33N 40°40' W 074°02'0 0.0
2016-Nov-28 00:33N 40°40' W 074°02'0 0.0
2016-Nov-27 23:33N 40°40' W 074°02'0 0.0
2016-Nov-27 22:33N 40°40' W 074°02'4 4.3
2016-Nov-27 21:33N 40°38' W 074°08'0 0.0
2016-Nov-27 20:33N 40°38' W 074°08'0 0.0
2016-Nov-27 19:33N 40°38' W 074°08'0 0.0
2016-Nov-27 18:33N 40°38' W 074°08'0 0.0
2016-Nov-27 17:33N 40°38' W 074°08'4 4.2
2016-Nov-27 16:34N 40°40' W 074°03'0 0.0
2016-Nov-27 15:34N 40°40' W 074°03'0 0.1
2016-Nov-27 14:34N 40°40' W 074°02'0 0.1
2016-Nov-27 13:33N 40°40' W 074°02'0 0.1
2016-Nov-27 12:33N 40°40' W 074°02'3 2.7
2016-Nov-27 11:33N 40°42' W 074°00'7 7.1
2016-Nov-27 10:32N 40°48' W 073°55'8 7.9
2016-Nov-27 09:33N 40°51' W 073°45'0 0.0
2016-Nov-26 02:33N 40°51' W 073°45'8 8.2
2016-Nov-26 01:33N 40°47' W 073°55'8 8.5
2016-Nov-26 00:33N 40°41' W 074°02'9 9.0
2016-Nov-25 23:33N 40°36' W 074°12'  

Dump ship's entire track history